createdAt,value
2023-09-30T00:00:12.730Z,100.00
2023-09-30T00:02:39.855Z,100.00
2023-09-30T00:05:07.237Z,100.00
2023-09-30T00:07:34.385Z,100.00
2023-09-30T00:10:01.747Z,100.00
2023-09-30T00:12:29.272Z,100.00
2023-09-30T00:14:56.234Z,100.00
2023-09-30T00:17:23.154Z,100.00
2023-09-30T00:19:50.296Z,100.00
2023-09-30T00:22:17.202Z,100.00
2023-09-30T00:24:44.244Z,100.00
2023-09-30T00:27:11.215Z,100.00
2023-09-30T00:29:38.162Z,100.00
2023-09-30T00:32:05.594Z,100.00
2023-09-30T00:34:36.307Z,100.00
2023-09-30T00:37:03.546Z,100.00
2023-09-30T00:39:32.132Z,100.00
2023-09-30T00:42:02.309Z,100.00
2023-09-30T00:44:29.422Z,100.00
2023-09-30T00:46:56.945Z,100.00
2023-09-30T00:49:24.851Z,100.00
2023-09-30T00:51:53.158Z,100.00
2023-09-30T00:54:20.754Z,100.00
2023-09-30T00:56:48.436Z,100.00
2023-09-30T00:59:15.780Z,100.00
2023-09-30T01:01:46.391Z,100.00
2023-09-30T01:04:13.905Z,100.00
2023-09-30T01:06:41.140Z,100.00
2023-09-30T01:09:11.177Z,100.00
2023-09-30T01:11:38.315Z,100.00
2023-09-30T01:14:05.281Z,100.00
2023-09-30T01:16:32.194Z,100.00
2023-09-30T01:18:59.230Z,100.00
2023-09-30T01:21:27.929Z,100.00
2023-09-30T01:23:54.947Z,100.00
2023-09-30T01:26:21.903Z,100.00
2023-09-30T01:28:50.020Z,100.00
2023-09-30T01:31:17.060Z,100.00
2023-09-30T01:33:44.035Z,100.00
2023-09-30T01:36:11.039Z,100.00
2023-09-30T01:38:38.089Z,100.00
2023-09-30T01:41:05.068Z,100.00
2023-09-30T01:43:53.218Z,100.00
2023-09-30T01:46:20.506Z,100.00
2023-09-30T01:48:47.444Z,100.00
2023-09-30T01:51:14.421Z,100.00
2023-09-30T01:53:42.060Z,100.00
2023-09-30T01:56:09.052Z,100.00
2023-09-30T01:58:36.008Z,100.00
2023-09-30T02:01:06.172Z,100.00
2023-09-30T02:03:33.309Z,100.00
2023-09-30T02:06:00.351Z,100.00
2023-09-30T02:08:27.351Z,100.00
2023-09-30T02:10:54.925Z,100.00
2023-09-30T02:13:21.813Z,100.00
2023-09-30T02:15:49.057Z,100.00
2023-09-30T02:18:16.148Z,100.00
2023-09-30T02:20:43.217Z,100.00
2023-09-30T02:23:12.004Z,100.00
2023-09-30T02:25:39.443Z,100.00
2023-09-30T02:28:07.360Z,100.00
2023-09-30T02:30:34.366Z,100.00
2023-09-30T02:33:01.691Z,100.00
2023-09-30T02:35:28.683Z,100.00
2023-09-30T02:37:55.687Z,100.00
2023-09-30T02:40:26.056Z,100.00
2023-09-30T02:42:53.379Z,100.00
2023-09-30T02:45:21.097Z,100.00
2023-09-30T02:47:48.428Z,100.00
2023-09-30T02:50:15.387Z,100.00
2023-09-30T02:52:42.411Z,100.00
2023-09-30T02:55:10.561Z,100.00
2023-09-30T02:57:37.564Z,100.00
2023-09-30T03:00:24.006Z,100.00
2023-09-30T03:02:52.170Z,100.00
2023-09-30T03:05:19.677Z,100.00
2023-09-30T03:07:46.946Z,100.00
2023-09-30T03:10:21.545Z,100.00
2023-09-30T03:12:49.246Z,100.00
2023-09-30T03:15:16.813Z,100.00
2023-09-30T03:17:43.808Z,100.00
2023-09-30T03:20:13.349Z,100.00
2023-09-30T03:22:41.611Z,100.00
2023-09-30T03:25:09.844Z,100.00
2023-09-30T03:27:37.564Z,100.00
2023-09-30T03:30:06.928Z,100.00
2023-09-30T03:32:34.809Z,100.00
2023-09-30T03:35:02.233Z,100.00
2023-09-30T03:37:32.588Z,100.00
2023-09-30T03:39:59.588Z,100.00
2023-09-30T03:42:26.585Z,100.00
2023-09-30T03:44:53.486Z,100.00
2023-09-30T03:47:20.796Z,100.00
2023-09-30T03:49:49.449Z,100.00
2023-09-30T03:52:16.362Z,100.00
2023-09-30T03:54:43.352Z,100.00
2023-09-30T03:57:12.822Z,100.00
2023-09-30T03:59:39.756Z,100.00
2023-09-30T04:02:07.664Z,100.00
2023-09-30T04:04:35.692Z,100.00
2023-09-30T04:07:02.655Z,100.00
2023-09-30T04:09:29.549Z,100.00
2023-09-30T04:11:56.560Z,100.00
2023-09-30T04:14:23.451Z,100.00
2023-09-30T04:16:50.378Z,100.00
2023-09-30T04:19:17.683Z,100.00
2023-09-30T04:21:44.623Z,100.00
2023-09-30T04:24:11.571Z,100.00
2023-09-30T04:26:38.476Z,100.00
2023-09-30T04:29:06.128Z,100.00
2023-09-30T04:31:33.134Z,100.00
2023-09-30T04:34:00.364Z,100.00
2023-09-30T04:36:27.482Z,100.00
2023-09-30T04:38:54.393Z,100.00
2023-09-30T04:41:22.636Z,100.00
2023-09-30T04:43:51.005Z,100.00
2023-09-30T04:46:21.786Z,100.00
2023-09-30T04:48:49.988Z,100.00
2023-09-30T04:51:19.428Z,100.00
2023-09-30T04:53:47.674Z,100.00
2023-09-30T04:56:14.980Z,100.00
2023-09-30T04:58:42.080Z,100.00
2023-09-30T05:01:10.106Z,100.00
2023-09-30T05:03:37.485Z,100.00
2023-09-30T05:06:04.816Z,100.00
2023-09-30T05:08:32.163Z,100.00
2023-09-30T05:10:59.121Z,100.00
2023-09-30T05:13:26.109Z,100.00
2023-09-30T05:15:53.803Z,100.00
2023-09-30T05:18:20.879Z,100.00
2023-09-30T05:20:47.900Z,100.00
2023-09-30T05:23:16.016Z,100.00
2023-09-30T05:25:44.201Z,100.00
2023-09-30T05:28:12.921Z,100.00
2023-09-30T05:30:40.586Z,100.00
2023-09-30T05:33:08.181Z,100.00
2023-09-30T05:35:35.165Z,100.00
2023-09-30T05:38:02.208Z,100.00
2023-09-30T05:40:31.875Z,100.00
2023-09-30T05:43:00.276Z,100.00
2023-09-30T05:45:28.603Z,100.00
2023-09-30T05:47:57.743Z,100.00
2023-09-30T05:50:28.458Z,100.00
2023-09-30T05:52:56.703Z,100.00
2023-09-30T05:55:24.038Z,100.00
2023-09-30T05:57:51.435Z,100.00
2023-09-30T06:00:29.725Z,100.00
2023-09-30T06:02:58.091Z,100.00
2023-09-30T06:05:25.129Z,100.00
2023-09-30T06:07:52.069Z,100.00
2023-09-30T06:10:21.874Z,100.00
2023-09-30T06:12:49.645Z,100.00
2023-09-30T06:15:17.412Z,100.00
2023-09-30T06:17:45.133Z,100.00
2023-09-30T06:20:17.573Z,100.00
2023-09-30T06:22:48.635Z,100.00
2023-09-30T06:25:17.776Z,100.00
2023-09-30T06:27:45.789Z,100.00
2023-09-30T06:30:14.619Z,100.00
2023-09-30T06:32:41.863Z,100.00
2023-09-30T06:35:11.575Z,100.00
2023-09-30T06:37:42.110Z,100.00
2023-09-30T06:40:10.031Z,100.00
2023-09-30T06:42:37.157Z,100.00
2023-09-30T06:45:07.006Z,100.00
2023-09-30T06:47:37.917Z,100.00
2023-09-30T06:50:08.944Z,100.00
2023-09-30T06:52:36.690Z,100.00
2023-09-30T06:55:05.853Z,100.00
2023-09-30T06:57:33.936Z,100.00
2023-09-30T07:00:00.858Z,100.00
2023-09-30T07:02:27.863Z,100.00
2023-09-30T07:04:54.937Z,100.00
2023-09-30T07:07:21.956Z,100.00
2023-09-30T07:09:49.357Z,100.00
2023-09-30T07:12:16.486Z,100.00
2023-09-30T07:14:43.415Z,100.00
2023-09-30T07:17:10.385Z,100.00
2023-09-30T07:19:37.476Z,100.00
2023-09-30T07:22:05.497Z,100.00
2023-09-30T07:24:32.758Z,100.00
2023-09-30T07:27:06.472Z,100.00
2023-09-30T07:29:40.992Z,100.00
2023-09-30T07:32:08.591Z,100.00
2023-09-30T07:34:35.733Z,100.00
2023-09-30T07:37:02.719Z,98.63
2023-09-30T07:39:30.559Z,100.00
2023-09-30T07:41:57.504Z,96.11
2023-09-30T07:44:24.389Z,95.63
2023-09-30T07:46:51.358Z,95.15
2023-09-30T07:49:18.399Z,94.47
2023-09-30T07:51:47.407Z,93.40
2023-09-30T07:54:30.341Z,91.67
2023-09-30T07:56:58.912Z,90.82
2023-09-30T07:59:26.670Z,93.07
2023-09-30T08:01:54.089Z,89.32
2023-09-30T08:04:23.615Z,90.26
2023-09-30T08:06:52.298Z,86.96
2023-09-30T08:09:19.857Z,85.50
2023-09-30T08:11:46.965Z,85.36
2023-09-30T08:14:13.979Z,85.67
2023-09-30T08:16:41.576Z,85.52
2023-09-30T08:19:08.566Z,83.57
2023-09-30T08:21:35.642Z,81.21
2023-09-30T08:24:03.387Z,82.36
2023-09-30T08:26:30.504Z,82.02
2023-09-30T08:28:57.599Z,81.64
2023-09-30T08:31:25.597Z,79.69
2023-09-30T08:33:53.146Z,76.59
2023-09-30T08:36:20.253Z,78.12
2023-09-30T08:38:47.675Z,76.59
2023-09-30T08:41:26.904Z,75.86
2023-09-30T08:43:57.010Z,75.25
2023-09-30T08:46:25.682Z,75.18
2023-09-30T08:48:53.419Z,76.13
2023-09-30T08:51:20.427Z,75.48
2023-09-30T08:53:47.443Z,75.18
2023-09-30T08:56:15.608Z,77.04
2023-09-30T08:58:43.053Z,74.89
2023-09-30T09:01:11.673Z,72.89
2023-09-30T09:03:38.961Z,71.93
2023-09-30T09:06:05.963Z,70.69
2023-09-30T09:08:34.229Z,70.62
2023-09-30T09:11:04.828Z,70.21
2023-09-30T09:13:50.773Z,70.35
2023-09-30T09:16:21.255Z,72.27
2023-09-30T09:18:55.021Z,69.84
2023-09-30T09:21:24.939Z,71.11
2023-09-30T09:23:56.062Z,68.34
2023-09-30T09:26:29.140Z,68.82
2023-09-30T09:29:01.783Z,67.50
2023-09-30T09:31:36.200Z,65.60
2023-09-30T09:34:15.419Z,64.23
2023-09-30T09:36:44.373Z,64.39
2023-09-30T09:39:14.940Z,63.78
2023-09-30T09:41:54.556Z,62.89
2023-09-30T09:44:24.820Z,60.70
2023-09-30T09:46:52.141Z,60.21
2023-09-30T09:49:19.725Z,60.41
2023-09-30T09:51:49.595Z,59.60
2023-09-30T09:54:17.210Z,58.80
2023-09-30T09:56:47.193Z,58.82
2023-09-30T09:59:14.570Z,57.45
2023-09-30T10:01:42.644Z,56.11
2023-09-30T10:04:12.209Z,56.41
2023-09-30T10:06:42.602Z,56.98
2023-09-30T10:09:11.456Z,57.28
2023-09-30T10:11:41.728Z,57.38
2023-09-30T10:14:15.698Z,55.79
2023-09-30T10:16:45.425Z,56.14
2023-09-30T10:19:13.387Z,56.63
2023-09-30T10:21:40.736Z,56.08
2023-09-30T10:24:31.169Z,55.42
2023-09-30T10:27:17.473Z,53.86
2023-09-30T10:29:44.408Z,53.98
2023-09-30T10:32:11.418Z,52.14
2023-09-30T10:34:39.119Z,51.89
2023-09-30T10:37:21.661Z,52.09
2023-09-30T10:39:54.980Z,53.04
2023-09-30T10:42:40.918Z,53.57
2023-09-30T10:45:08.699Z,53.99
2023-09-30T10:47:36.411Z,51.38
2023-09-30T10:50:03.731Z,52.65
2023-09-30T10:52:31.574Z,53.33
2023-09-30T10:55:08.525Z,52.18
2023-09-30T10:57:35.522Z,52.22
2023-09-30T11:00:12.768Z,52.76
2023-09-30T11:02:52.821Z,52.42
2023-09-30T11:05:32.046Z,51.33
2023-09-30T11:08:04.442Z,51.28
2023-09-30T11:10:31.413Z,52.25
2023-09-30T11:12:59.004Z,52.47
2023-09-30T11:15:26.274Z,52.44
2023-09-30T11:17:53.392Z,52.68
2023-09-30T11:20:21.962Z,52.34
2023-09-30T11:22:49.801Z,51.80
2023-09-30T11:25:20.269Z,52.70
2023-09-30T11:27:48.078Z,51.98
2023-09-30T11:30:15.791Z,51.33
2023-09-30T11:32:43.783Z,51.47
2023-09-30T11:35:12.448Z,50.89
2023-09-30T11:37:42.276Z,50.79
2023-09-30T11:40:15.330Z,50.84
2023-09-30T11:42:45.761Z,49.70
2023-09-30T11:45:23.883Z,51.15
2023-09-30T11:47:51.264Z,51.46
2023-09-30T11:50:19.312Z,51.68
2023-09-30T11:52:49.295Z,51.21
2023-09-30T11:55:17.877Z,51.69
2023-09-30T11:57:48.869Z,52.25
2023-09-30T12:00:17.907Z,51.48
2023-09-30T12:02:45.934Z,51.76
2023-09-30T12:05:14.609Z,51.20
2023-09-30T12:07:44.731Z,51.88
2023-09-30T12:10:11.635Z,51.48
2023-09-30T12:12:41.177Z,52.47
2023-09-30T12:15:10.359Z,52.57
2023-09-30T12:17:38.415Z,51.88
2023-09-30T12:20:07.849Z,50.50
2023-09-30T12:22:34.752Z,50.70
2023-09-30T12:25:02.278Z,51.57
2023-09-30T12:27:30.581Z,51.61
2023-09-30T12:29:59.338Z,51.57
2023-09-30T12:32:27.038Z,52.05
2023-09-30T12:34:54.748Z,50.88
2023-09-30T12:37:21.646Z,51.81
2023-09-30T12:39:49.033Z,51.53
2023-09-30T12:42:16.994Z,51.21
2023-09-30T12:44:43.911Z,51.37
2023-09-30T12:47:10.922Z,52.39
2023-09-30T12:49:39.003Z,51.85
2023-09-30T12:52:06.169Z,51.92
2023-09-30T12:54:33.207Z,52.69
2023-09-30T12:57:00.154Z,51.18
2023-09-30T12:59:29.058Z,51.55
2023-09-30T13:01:56.134Z,50.96
2023-09-30T13:04:25.040Z,51.10
2023-09-30T13:06:52.059Z,50.95
2023-09-30T13:09:21.282Z,51.04
2023-09-30T13:11:48.957Z,51.36
2023-09-30T13:14:17.088Z,51.54
2023-09-30T13:16:45.297Z,51.33
2023-09-30T13:19:13.093Z,51.17
2023-09-30T13:21:41.995Z,51.39
2023-09-30T13:24:11.480Z,51.44
2023-09-30T13:26:38.439Z,51.22
2023-09-30T13:29:06.404Z,51.64
2023-09-30T13:31:33.823Z,51.93
2023-09-30T13:34:00.985Z,52.48
2023-09-30T13:36:27.978Z,52.73
2023-09-30T13:38:54.966Z,52.78
2023-09-30T13:41:22.037Z,53.25
2023-09-30T13:43:49.189Z,53.47
2023-09-30T13:46:17.248Z,52.88
2023-09-30T13:48:44.435Z,52.47
2023-09-30T13:51:18.276Z,53.18
2023-09-30T13:53:45.393Z,53.47
2023-09-30T13:56:12.863Z,52.57
2023-09-30T13:58:42.220Z,53.35
2023-09-30T14:01:09.279Z,53.74
2023-09-30T14:03:42.130Z,53.51
2023-09-30T14:06:16.351Z,53.75
2023-09-30T14:08:48.035Z,54.23
2023-09-30T14:11:22.497Z,54.08
2023-09-30T14:13:50.318Z,53.99
2023-09-30T14:16:17.606Z,53.83
2023-09-30T14:18:46.415Z,54.04
2023-09-30T14:21:13.390Z,54.38
2023-09-30T14:23:42.271Z,54.61
2023-09-30T14:26:12.288Z,54.65
2023-09-30T14:28:39.411Z,55.15
2023-09-30T14:31:09.071Z,55.96
2023-09-30T14:33:36.122Z,56.49
2023-09-30T14:36:03.801Z,55.74
2023-09-30T14:38:30.774Z,55.62
2023-09-30T14:41:00.551Z,56.33
2023-09-30T14:43:30.599Z,56.18
2023-09-30T14:45:58.305Z,56.54
2023-09-30T14:48:28.411Z,56.77
2023-09-30T14:50:56.364Z,56.50
2023-09-30T14:53:25.751Z,56.70
2023-09-30T14:55:53.976Z,56.83
2023-09-30T14:58:21.007Z,57.14
2023-09-30T15:00:49.054Z,57.19
2023-09-30T15:03:16.120Z,57.51
2023-09-30T15:05:47.069Z,57.73
2023-09-30T15:08:13.955Z,57.81
2023-09-30T15:10:45.701Z,58.22
2023-09-30T15:13:13.155Z,58.94
2023-09-30T15:15:41.141Z,59.39
2023-09-30T15:18:08.226Z,59.69
2023-09-30T15:20:45.123Z,59.94
2023-09-30T15:23:15.304Z,60.83
2023-09-30T15:25:43.970Z,61.41
2023-09-30T15:28:11.356Z,61.47
2023-09-30T15:30:38.378Z,61.82
2023-09-30T15:33:05.651Z,62.05
2023-09-30T15:35:32.584Z,62.52
2023-09-30T15:37:59.776Z,62.84
2023-09-30T15:40:27.126Z,62.94
2023-09-30T15:42:54.059Z,63.47
2023-09-30T15:45:21.135Z,63.41
2023-09-30T15:47:50.866Z,63.40
2023-09-30T15:50:18.335Z,63.89
2023-09-30T15:52:46.166Z,64.38
2023-09-30T15:55:13.237Z,64.48
2023-09-30T15:57:43.829Z,64.85
2023-09-30T16:00:11.686Z,66.00
2023-09-30T16:02:38.895Z,65.99
2023-09-30T16:05:06.081Z,66.64
2023-09-30T16:07:33.195Z,66.98
2023-09-30T16:10:00.269Z,67.23
2023-09-30T16:12:27.354Z,68.03
2023-09-30T16:14:57.472Z,68.99
2023-09-30T16:17:24.335Z,70.63
2023-09-30T16:19:51.378Z,71.16
2023-09-30T16:22:18.298Z,71.68
2023-09-30T16:24:46.619Z,73.45
2023-09-30T16:27:13.585Z,73.44
2023-09-30T16:29:40.641Z,73.25
2023-09-30T16:32:10.495Z,73.33
2023-09-30T16:34:37.561Z,73.39
2023-09-30T16:37:18.478Z,73.22
2023-09-30T16:39:48.573Z,73.23
2023-09-30T16:42:15.504Z,73.52
2023-09-30T16:44:46.120Z,74.89
2023-09-30T16:47:13.067Z,74.92
2023-09-30T16:49:40.007Z,75.23
2023-09-30T16:52:07.092Z,75.87
2023-09-30T16:54:34.452Z,76.61
2023-09-30T16:57:01.480Z,78.30
2023-09-30T16:59:30.273Z,78.90
2023-09-30T17:01:57.308Z,79.03
2023-09-30T17:04:24.315Z,80.68
2023-09-30T17:06:51.471Z,81.37
2023-09-30T17:09:18.546Z,82.49
2023-09-30T17:11:45.438Z,82.04
2023-09-30T17:14:15.432Z,82.19
2023-09-30T17:16:42.348Z,81.83
2023-09-30T17:19:09.806Z,81.25
2023-09-30T17:21:39.013Z,81.44
2023-09-30T17:24:06.162Z,81.73
2023-09-30T17:26:33.093Z,82.30
2023-09-30T17:28:59.970Z,82.75
2023-09-30T17:31:27.763Z,82.92
2023-09-30T17:33:54.922Z,83.66
2023-09-30T17:36:21.905Z,83.96
2023-09-30T17:38:49.633Z,83.96
2023-09-30T17:41:16.560Z,83.77
2023-09-30T17:43:44.266Z,84.38
2023-09-30T17:46:16.157Z,84.50
2023-09-30T17:48:46.761Z,84.46
2023-09-30T17:51:15.760Z,85.10
2023-09-30T17:53:42.706Z,84.55
2023-09-30T17:56:19.114Z,84.93
2023-09-30T17:58:46.199Z,85.43
2023-09-30T18:01:20.610Z,85.57
2023-09-30T18:03:48.692Z,85.70
2023-09-30T18:06:15.724Z,85.73
2023-09-30T18:08:43.205Z,85.30
2023-09-30T18:11:10.845Z,86.17
2023-09-30T18:13:39.909Z,86.59
2023-09-30T18:16:08.198Z,86.54
2023-09-30T18:18:36.314Z,86.62
2023-09-30T18:21:03.612Z,87.37
2023-09-30T18:23:30.701Z,87.93
2023-09-30T18:25:57.628Z,88.74
2023-09-30T18:28:25.305Z,89.38
2023-09-30T18:30:52.283Z,88.48
2023-09-30T18:33:20.069Z,89.37
2023-09-30T18:35:47.198Z,89.43
2023-09-30T18:38:15.223Z,89.71
2023-09-30T18:40:44.325Z,90.33
2023-09-30T18:43:15.190Z,90.21
2023-09-30T18:45:42.980Z,89.89
2023-09-30T18:48:11.584Z,90.35
2023-09-30T18:50:45.831Z,89.45
2023-09-30T18:53:14.027Z,89.07
2023-09-30T18:55:42.047Z,88.55
2023-09-30T18:58:10.701Z,88.61
2023-09-30T19:00:39.797Z,88.40
2023-09-30T19:03:09.731Z,88.74
2023-09-30T19:05:37.891Z,88.43
2023-09-30T19:08:05.440Z,88.29
2023-09-30T19:10:32.947Z,88.25
2023-09-30T19:13:00.328Z,87.49
2023-09-30T19:15:28.418Z,87.94
2023-09-30T19:17:55.593Z,87.86
2023-09-30T19:20:23.926Z,86.97
2023-09-30T19:22:54.732Z,86.89
2023-09-30T19:25:22.042Z,86.80
2023-09-30T19:27:49.009Z,86.47
2023-09-30T19:30:16.130Z,86.00
2023-09-30T19:32:43.290Z,86.13
2023-09-30T19:35:10.487Z,86.30
2023-09-30T19:37:37.599Z,86.83
2023-09-30T19:40:05.184Z,87.15
2023-09-30T19:42:32.402Z,86.90
2023-09-30T19:45:00.825Z,86.62
2023-09-30T19:47:28.264Z,86.71
2023-09-30T19:49:55.904Z,86.81
2023-09-30T19:52:32.742Z,86.54
2023-09-30T19:54:59.799Z,87.97
2023-09-30T19:57:36.357Z,88.39
2023-09-30T20:00:05.494Z,87.95
2023-09-30T20:02:32.594Z,87.26
2023-09-30T20:04:59.595Z,86.37
2023-09-30T20:07:26.537Z,88.42
2023-09-30T20:09:54.356Z,89.00
2023-09-30T20:12:22.760Z,88.27
2023-09-30T20:14:49.736Z,88.66
2023-09-30T20:17:19.365Z,87.91
2023-09-30T20:19:47.971Z,87.15
2023-09-30T20:22:15.023Z,87.75
2023-09-30T20:24:42.136Z,87.82
2023-09-30T20:27:11.292Z,87.44
2023-09-30T20:29:38.220Z,87.28
2023-09-30T20:32:05.370Z,87.97
2023-09-30T20:34:32.297Z,88.64
2023-09-30T20:36:59.581Z,88.58
2023-09-30T20:39:26.680Z,87.69
2023-09-30T20:41:53.577Z,87.26
2023-09-30T20:44:20.491Z,87.20
2023-09-30T20:46:49.051Z,87.48
2023-09-30T20:49:19.314Z,87.61
2023-09-30T20:51:46.922Z,88.59
2023-09-30T20:54:14.022Z,88.24
2023-09-30T20:56:40.955Z,87.93
2023-09-30T20:59:08.166Z,88.87
2023-09-30T21:01:35.248Z,89.31
2023-09-30T21:04:04.909Z,89.36
2023-09-30T21:06:31.806Z,89.51
2023-09-30T21:08:58.922Z,89.43
2023-09-30T21:11:25.941Z,90.48
2023-09-30T21:13:53.011Z,90.63
2023-09-30T21:16:20.147Z,90.19
2023-09-30T21:18:47.206Z,90.65
2023-09-30T21:21:14.281Z,90.85
2023-09-30T21:23:41.477Z,90.66
2023-09-30T21:26:15.042Z,90.59
2023-09-30T21:28:47.479Z,90.96
2023-09-30T21:31:17.953Z,91.45
2023-09-30T21:33:45.922Z,91.34
2023-09-30T21:36:13.681Z,91.73
2023-09-30T21:38:40.938Z,91.76
2023-09-30T21:41:25.190Z,92.21
2023-09-30T21:43:52.615Z,92.53
2023-09-30T21:46:19.785Z,92.17
2023-09-30T21:48:48.021Z,92.02
2023-09-30T21:51:15.660Z,92.02
2023-09-30T21:53:42.569Z,93.46
2023-09-30T21:56:09.592Z,93.12
2023-09-30T21:58:36.449Z,93.30
2023-09-30T22:01:06.822Z,93.08
2023-09-30T22:03:34.203Z,92.61
2023-09-30T22:06:01.710Z,92.51
2023-09-30T22:08:29.769Z,92.45
2023-09-30T22:10:56.746Z,92.10
2023-09-30T22:13:25.984Z,91.53
2023-09-30T22:15:56.038Z,91.56
2023-09-30T22:18:26.430Z,91.31
2023-09-30T22:20:53.928Z,91.27
2023-09-30T22:23:20.986Z,92.62
2023-09-30T22:25:49.963Z,92.78
2023-09-30T22:28:17.370Z,93.14
2023-09-30T22:30:44.411Z,92.87
2023-09-30T22:33:11.400Z,92.64
2023-09-30T22:35:42.031Z,92.31
2023-09-30T22:38:12.702Z,92.60
2023-09-30T22:40:39.737Z,92.69
2023-09-30T22:43:06.894Z,92.81
2023-09-30T22:45:34.670Z,92.73
2023-09-30T22:48:01.847Z,92.42
2023-09-30T22:50:28.840Z,92.34
2023-09-30T22:52:56.581Z,92.90
2023-09-30T22:55:24.872Z,92.76
2023-09-30T22:57:56.567Z,92.96
2023-09-30T23:00:28.461Z,92.54
2023-09-30T23:02:58.911Z,92.68
2023-09-30T23:05:29.466Z,92.78
2023-09-30T23:07:56.740Z,93.72
2023-09-30T23:10:24.184Z,93.77
2023-09-30T23:12:51.490Z,93.20
2023-09-30T23:15:19.964Z,93.74
2023-09-30T23:17:51.080Z,93.77
2023-09-30T23:20:21.859Z,93.76
2023-09-30T23:22:52.904Z,93.84
2023-09-30T23:25:24.572Z,94.40
2023-09-30T23:27:51.667Z,93.86
2023-09-30T23:30:19.140Z,94.63
2023-09-30T23:32:49.329Z,94.64
2023-09-30T23:35:17.688Z,94.19
2023-09-30T23:37:58.464Z,94.62
2023-09-30T23:40:25.760Z,94.81
2023-09-30T23:42:55.372Z,94.62
2023-09-30T23:45:23.248Z,94.92
2023-09-30T23:47:52.612Z,94.90
2023-09-30T23:50:20.588Z,95.59
2023-09-30T23:52:54.840Z,95.90
2023-09-30T23:55:26.722Z,96.32
2023-09-30T23:57:58.144Z,95.30
